createdAt,value
2023-02-18T00:00:42.194Z,44.70
2023-02-18T00:05:44.996Z,44.49
2023-02-18T00:10:49.250Z,44.61
2023-02-18T00:15:52.232Z,44.52
2023-02-18T00:20:55.021Z,44.41
2023-02-18T00:26:02.749Z,44.46
2023-02-18T00:31:09.129Z,44.52
2023-02-18T00:36:13.084Z,44.55
2023-02-18T00:41:17.361Z,44.69
2023-02-18T00:46:20.206Z,44.49
2023-02-18T00:51:23.038Z,44.55
2023-02-18T00:56:27.206Z,44.49
2023-02-18T01:01:30.463Z,44.28
2023-02-18T01:06:33.359Z,44.38
2023-02-18T01:11:37.649Z,44.71
2023-02-18T01:16:40.469Z,44.34
2023-02-18T01:21:44.387Z,44.32
2023-02-18T01:26:48.551Z,44.23
2023-02-18T01:31:51.775Z,44.14
2023-02-18T01:36:56.307Z,44.21
2023-02-18T01:42:00.497Z,44.29
2023-02-18T01:47:03.286Z,44.10
2023-02-18T01:52:07.735Z,43.89
2023-02-18T01:57:13.253Z,44.08
2023-02-18T02:02:18.136Z,44.00
2023-02-18T02:07:21.745Z,44.22
2023-02-18T02:12:50.159Z,44.18
2023-02-18T02:18:00.950Z,44.24
2023-02-18T02:23:36.114Z,44.25
2023-02-18T02:29:01.911Z,44.17
2023-02-18T02:34:33.506Z,44.15
2023-02-18T02:39:39.078Z,44.40
2023-02-18T02:44:45.526Z,44.31
2023-02-18T02:49:55.002Z,44.27
2023-02-18T02:54:57.904Z,44.27
2023-02-18T03:00:02.723Z,44.32
2023-02-18T03:05:15.277Z,44.20
2023-02-18T03:10:37.567Z,44.36
2023-02-18T03:15:43.430Z,44.50
2023-02-18T03:20:52.081Z,44.41
2023-02-18T03:25:55.244Z,44.27
2023-02-18T03:31:01.276Z,44.25
2023-02-18T03:36:06.467Z,44.47
2023-02-18T03:41:09.533Z,44.44
2023-02-18T03:46:13.792Z,44.60
2023-02-18T03:51:18.169Z,44.56
2023-02-18T03:56:20.984Z,44.87
2023-02-18T04:01:23.862Z,44.87
2023-02-18T04:06:28.073Z,44.82
2023-02-18T04:11:30.925Z,45.03
2023-02-18T04:16:33.781Z,45.11
2023-02-18T04:21:38.004Z,45.09
2023-02-18T04:26:40.852Z,45.30
2023-02-18T04:31:43.762Z,45.06
2023-02-18T04:36:48.073Z,45.33
2023-02-18T04:41:50.957Z,45.23
2023-02-18T04:46:53.753Z,45.15
2023-02-18T04:51:58.032Z,45.32
2023-02-18T04:57:00.839Z,45.32
2023-02-18T05:02:03.595Z,45.19
2023-02-18T05:07:07.897Z,45.29
2023-02-18T05:12:10.780Z,45.83
2023-02-18T05:17:13.615Z,45.81
2023-02-18T05:22:17.757Z,45.87
2023-02-18T05:27:20.550Z,46.36
2023-02-18T05:32:23.380Z,46.24
2023-02-18T05:37:27.560Z,46.25
2023-02-18T05:42:30.658Z,46.26
2023-02-18T05:47:33.462Z,46.48
2023-02-18T05:52:37.566Z,46.60
2023-02-18T05:57:40.923Z,46.71
2023-02-18T06:02:43.728Z,46.52
2023-02-18T06:07:47.969Z,46.73
2023-02-18T06:12:50.828Z,46.92
2023-02-18T06:17:53.625Z,47.06
2023-02-18T06:22:57.734Z,47.24
2023-02-18T06:28:00.507Z,47.57
2023-02-18T06:33:04.193Z,47.38
2023-02-18T06:38:08.435Z,47.58
2023-02-18T06:43:11.351Z,47.51
2023-02-18T06:48:16.786Z,47.81
2023-02-18T06:53:20.967Z,48.01
2023-02-18T06:58:24.282Z,48.16
2023-02-18T07:03:27.166Z,48.06
2023-02-18T07:08:33.066Z,48.15
2023-02-18T07:13:35.928Z,48.59
2023-02-18T07:18:38.691Z,48.59
2023-02-18T07:23:42.887Z,48.85
2023-02-18T07:28:45.690Z,48.81
2023-02-18T07:33:48.524Z,48.65
2023-02-18T07:38:52.661Z,49.00
2023-02-18T07:43:55.568Z,48.90
2023-02-18T07:48:58.363Z,49.11
2023-02-18T07:54:02.448Z,48.86
2023-02-18T07:59:05.234Z,49.07
2023-02-18T08:04:08.141Z,48.88
2023-02-18T08:09:12.362Z,46.19
2023-02-18T08:14:15.170Z,46.33
2023-02-18T08:19:17.940Z,45.61
2023-02-18T08:24:22.123Z,45.26
2023-02-18T08:29:24.920Z,45.33
2023-02-18T08:34:27.788Z,45.42
2023-02-18T08:39:34.834Z,45.51
2023-02-18T08:44:37.688Z,45.72
2023-02-18T08:49:40.436Z,45.39
2023-02-18T08:54:44.593Z,45.31
2023-02-18T08:59:47.546Z,45.08
2023-02-18T09:04:50.522Z,44.95
2023-02-18T09:09:54.824Z,44.88
2023-02-18T09:14:58.057Z,45.12
2023-02-18T09:20:01.017Z,45.08
2023-02-18T09:25:05.894Z,45.06
2023-02-18T09:30:09.520Z,45.33
2023-02-18T09:35:12.367Z,45.32
2023-02-18T09:40:25.224Z,45.13
2023-02-18T09:45:28.498Z,45.17
2023-02-18T09:50:33.257Z,45.09
2023-02-18T09:55:39.478Z,45.07
2023-02-18T10:00:43.652Z,45.29
2023-02-18T10:05:52.235Z,44.92
2023-02-18T10:10:56.485Z,45.06
2023-02-18T10:15:59.435Z,45.02
2023-02-18T10:21:07.364Z,44.80
2023-02-18T10:26:14.410Z,44.99
2023-02-18T10:31:19.577Z,44.85
2023-02-18T10:36:26.736Z,44.72
2023-02-18T10:41:33.398Z,44.65
2023-02-18T10:46:38.690Z,44.98
2023-02-18T10:51:43.655Z,44.93
2023-02-18T10:56:50.362Z,44.90
2023-02-18T11:01:56.215Z,44.75
2023-02-18T11:07:02.817Z,44.92
2023-02-18T11:12:09.158Z,44.88
2023-02-18T11:17:22.055Z,45.11
2023-02-18T11:22:26.403Z,45.34
2023-02-18T11:27:32.949Z,45.36
2023-02-18T11:32:36.348Z,45.10
2023-02-18T11:37:39.266Z,45.15
2023-02-18T11:42:43.545Z,45.46
2023-02-18T11:47:46.560Z,45.39
2023-02-18T11:52:50.002Z,45.54
2023-02-18T11:57:57.049Z,45.70
2023-02-18T12:02:59.864Z,45.73
2023-02-18T12:08:04.581Z,45.95
2023-02-18T12:13:09.822Z,45.64
2023-02-18T12:18:51.008Z,45.38
2023-02-18T12:23:58.817Z,45.28
2023-02-18T12:29:11.121Z,45.25
2023-02-18T12:34:24.678Z,45.40
2023-02-18T12:39:35.953Z,45.41
2023-02-18T12:44:45.629Z,45.15
2023-02-18T12:50:00.463Z,45.53
2023-02-18T12:55:28.696Z,45.37
2023-02-18T13:01:19.076Z,45.29
2023-02-18T13:06:28.662Z,45.28
2023-02-18T13:11:37.767Z,45.42
2023-02-18T13:16:43.272Z,45.34
2023-02-18T13:21:46.648Z,45.39
2023-02-18T13:26:49.949Z,45.30
2023-02-18T13:32:00.476Z,45.12
2023-02-18T13:37:07.969Z,45.32
2023-02-18T13:42:28.562Z,44.86
2023-02-18T13:47:39.266Z,45.04
2023-02-18T13:52:42.954Z,45.02
2023-02-18T13:57:47.299Z,44.95
2023-02-18T14:02:59.006Z,44.75
2023-02-18T14:08:07.934Z,45.06
2023-02-18T14:13:25.860Z,45.18
2023-02-18T14:18:37.051Z,45.26
2023-02-18T14:23:42.207Z,45.31
2023-02-18T14:28:45.878Z,45.10
2023-02-18T14:33:54.076Z,45.19
2023-02-18T14:38:59.411Z,45.33
2023-02-18T14:44:21.250Z,45.39
2023-02-18T14:49:35.833Z,45.20
2023-02-18T14:54:38.898Z,44.80
2023-02-18T14:59:42.497Z,44.83
2023-02-18T15:04:47.480Z,44.83
2023-02-18T15:09:51.559Z,44.75
2023-02-18T15:14:54.805Z,44.99
2023-02-18T15:19:59.790Z,44.79
2023-02-18T15:25:02.837Z,45.01
2023-02-18T15:30:16.495Z,44.94
2023-02-18T15:35:23.016Z,45.01
2023-02-18T15:40:27.317Z,44.99
2023-02-18T15:45:31.952Z,44.84
2023-02-18T15:50:37.049Z,45.07
2023-02-18T15:55:40.805Z,45.09
2023-02-18T16:00:48.476Z,45.04
2023-02-18T16:05:53.023Z,45.10
2023-02-18T16:10:56.600Z,45.01
2023-02-18T16:16:01.099Z,45.15
2023-02-18T16:21:09.777Z,45.07
2023-02-18T16:26:21.622Z,44.93
2023-02-18T16:31:24.833Z,44.85
2023-02-18T16:36:29.278Z,44.98
2023-02-18T16:41:32.062Z,44.94
2023-02-18T16:46:35.439Z,44.80
2023-02-18T16:51:42.251Z,44.87
2023-02-18T16:56:45.240Z,44.64
2023-02-18T17:01:48.021Z,44.85
2023-02-18T17:06:52.207Z,44.72
2023-02-18T17:11:55.887Z,44.46
2023-02-18T17:16:58.773Z,44.27
2023-02-18T17:22:02.893Z,44.02
2023-02-18T17:27:05.690Z,43.99
2023-02-18T17:32:08.593Z,44.05
2023-02-18T17:37:13.551Z,43.71
2023-02-18T17:42:16.857Z,43.91
2023-02-18T17:47:19.670Z,43.52
2023-02-18T17:52:30.764Z,43.55
2023-02-18T17:57:33.543Z,43.14
2023-02-18T18:02:36.309Z,43.35
2023-02-18T18:07:40.516Z,43.30
2023-02-18T18:12:43.693Z,43.74
2023-02-18T18:17:46.781Z,43.54
2023-02-18T18:22:51.139Z,43.21
2023-02-18T18:27:54.093Z,43.20
2023-02-18T18:32:57.108Z,43.21
2023-02-18T18:38:03.334Z,43.31
2023-02-18T18:43:06.424Z,43.21
2023-02-18T18:48:09.184Z,42.97
2023-02-18T18:53:20.719Z,42.90
2023-02-18T18:58:24.544Z,42.98
2023-02-18T19:03:27.959Z,42.89
2023-02-18T19:08:32.378Z,43.05
2023-02-18T19:13:36.647Z,42.62
2023-02-18T19:18:39.448Z,42.85
2023-02-18T19:23:43.981Z,42.85
2023-02-18T19:28:46.852Z,42.98
2023-02-18T19:33:51.398Z,43.13
2023-02-18T19:38:55.679Z,43.15
2023-02-18T19:43:58.546Z,43.15
2023-02-18T19:49:01.393Z,43.09
2023-02-18T19:54:05.724Z,43.03
2023-02-18T19:59:08.639Z,42.93
2023-02-18T20:04:11.526Z,43.20
2023-02-18T20:09:15.808Z,42.84
2023-02-18T20:14:20.432Z,42.82
2023-02-18T20:19:24.798Z,42.91
2023-02-18T20:24:29.745Z,43.01
2023-02-18T20:29:33.552Z,42.79
2023-02-18T20:34:36.391Z,42.93
2023-02-18T20:39:40.504Z,42.99
2023-02-18T20:44:43.269Z,42.83
2023-02-18T20:49:46.657Z,42.64
2023-02-18T20:54:50.843Z,42.64
2023-02-18T20:59:53.811Z,42.73
2023-02-18T21:04:56.686Z,42.66
2023-02-18T21:10:00.921Z,42.82
2023-02-18T21:15:03.963Z,42.76
2023-02-18T21:20:08.128Z,42.97
2023-02-18T21:25:13.787Z,43.00
2023-02-18T21:30:16.765Z,43.17
2023-02-18T21:35:19.575Z,43.02
2023-02-18T21:40:23.769Z,42.87
2023-02-18T21:45:27.467Z,43.06
2023-02-18T21:50:30.269Z,43.10
2023-02-18T21:55:34.677Z,43.23
2023-02-18T22:00:37.442Z,43.14
2023-02-18T22:05:41.121Z,43.01
2023-02-18T22:10:45.401Z,42.98
2023-02-18T22:15:55.767Z,43.21
2023-02-18T22:20:58.621Z,42.99
2023-02-18T22:26:05.528Z,43.15
2023-02-18T22:31:09.166Z,42.90
2023-02-18T22:36:12.138Z,43.15
2023-02-18T22:41:16.837Z,43.44
2023-02-18T22:46:19.775Z,43.34
2023-02-18T22:51:25.031Z,43.46
2023-02-18T22:56:29.781Z,43.38
2023-02-18T23:01:33.616Z,43.53
2023-02-18T23:06:36.809Z,43.27
2023-02-18T23:11:41.059Z,43.34
2023-02-18T23:17:01.201Z,43.12
2023-02-18T23:22:04.222Z,43.18
2023-02-18T23:27:10.151Z,43.43
2023-02-18T23:32:12.955Z,43.18
2023-02-18T23:37:15.929Z,43.36
2023-02-18T23:42:20.318Z,43.48
2023-02-18T23:47:23.233Z,43.51
2023-02-18T23:52:26.265Z,43.28
2023-02-18T23:57:32.532Z,43.44
